Last 7 Days

Suisun Valley

Hourly Data | America/Los_Angeles
as of 8/12/22 4:27 AM PDT
Date & Time Temp (°F) RH (%) Dew Pt (°F) Wind Spd (mph) Wind Dir (°) Wind Gust (mph) Wind Gst Dir (°) Latest Rain (In) Daily Rain (In) Daily Min Temp (°F) Daily Max Temp (°F)
8/12/22 - 0400 53.9 84 49.2 0.1 W | 272 2.7 W | 272 0.00 0.00 52.7 64.2
8/12/22 - 0300 57.6 81 52.0 2.1 W | 272 10.5 W | 271 0.00 0.00 54.4 64.2
8/12/22 - 0200 59.3 77 51.9 1.7 W | 272 8.4 W | 271 0.00 0.00 56.3 64.2
8/12/22 - 0100 62.8 70 53.0 3.9 W | 272 12.8 W | 278 0.00 0.00 51.7 87.6
8/12/22 - 0000 62.8 71 53.2 1.6 W | 272 7.8 W | 275 0.00 0.00 51.7 87.6
8/11/22 - 2300 64.5 69 54.2 5.4 W | 270 12.8 W | 267 0.00 0.00 51.7 87.6
8/11/22 - 2200 67.9 57 52.1 5.8 W | 270 10.5 W | 268 0.00 0.00 51.7 87.6
8/11/22 - 2100 70.9 51 51.7 5.8 W | 270 12.1 W | 267 0.00 0.00 51.7 87.6
8/11/22 - 2000 75.8 44 52.3 3.7 W | 270 9.8 W | 266 0.00 0.00 51.7 87.6
8/11/22 - 1900 81.5 36 51.8 3.9 W | 272 13.5 W | 273 0.00 0.00 51.7 87.6
8/11/22 - 1800 85.0 32 51.4 6.1 W | 272 13.8 W | 271 0.00 0.00 51.7 87.6
8/11/22 - 1700 85.5 36 55.8 9.0 W | 271 17.8 W | 270 0.00 0.00 51.7 87.6
8/11/22 - 1600 86.8 35 55.6 9.0 W | 273 15.8 W | 271 0.00 0.00 51.7 87.6
8/11/22 - 1500 86.5 36 56.3 8.9 W | 272 18.2 W | 271 0.00 0.00 51.7 87.1
8/11/22 - 1400 85.2 37 55.8 8.4 W | 272 16.5 W | 272 0.00 0.00 51.7 86.2
8/11/22 - 1300 82.4 40 55.5 8.4 W | 272 17.2 W | 274 0.00 0.00 51.7 83.9
8/11/22 - 1200 79.3 45 56.3 8.0 W | 271 14.8 W | 265 0.00 0.00 51.7 81.1
8/11/22 - 1100 76.9 51 57.2 7.2 W | 270 13.8 W | 268 0.00 0.00 51.7 78.0
8/11/22 - 1000 74.1 57 57.8 4.4 W | 272 9.1 W | 270 0.00 0.00 51.7 76.1
8/11/22 - 0900 68.1 71 58.4 0.5 W | 272 4.8 W | 272 0.00 0.00 51.7 72.3
8/11/22 - 0800 58.4 90 55.3 0.1 W | 273 2.7 W | 273 0.00 0.00 51.7 64.4
8/11/22 - 0700 52.6 93 50.5 0.0 W | 273 1.7 W | 273 0.00 0.00 51.7 64.4
8/11/22 - 0600 55.0 88 51.6 0.0 W | 272 2.1 W | 272 0.00 0.00 53.3 64.4
8/11/22 - 0500 62.0 86 57.7 4.4 W | 273 12.5 W | 273 0.00 0.00 55.9 64.4
8/11/22 - 0400 57.5 88 54.0 0.8 W | 272 8.8 W | 271 0.00 0.00 55.9 64.4
8/11/22 - 0300 62.2 81 56.4 2.7 W | 271 8.8 W | 272 0.00 0.00 58.3 64.4
8/11/22 - 0200 63.8 80 57.6 3.8 W | 271 9.1 W | 268 0.00 0.00 63.4 64.4
8/11/22 - 0100 63.0 81 57.0 3.8 W | 270 11.1 W | 266 0.00 0.00 52.1 86.5
8/11/22 - 0000 60.4 76 52.9 0.1 W | 271 3.8 W | 271 0.00 0.00 52.1 86.5
8/10/22 - 2300 64.0 72 54.7 1.0 W | 271 6.8 W | 269 0.00 0.00 52.1 86.5
8/10/22 - 2200 66.5 62 53.1 0.3 W | 271 5.1 W | 270 0.00 0.00 52.1 86.5
8/10/22 - 2100 73.1 53 55.1 4.6 W | 270 9.5 W | 268 0.00 0.00 52.1 86.5
8/10/22 - 2000 77.1 48 55.6 3.1 W | 271 12.1 W | 272 0.00 0.00 52.1 86.5
8/10/22 - 1900 79.5 43 55.4 8.9 W | 272 18.8 W | 271 0.00 0.00 52.1 86.5
8/10/22 - 1800 82.2 40 55.7 9.8 W | 274 19.2 W | 278 0.00 0.00 52.1 86.5
8/10/22 - 1700 85.0 37 55.8 7.7 W | 273 16.5 W | 273 0.00 0.00 52.1 86.5
8/10/22 - 1600 85.7 37 56.3 6.9 W | 273 14.2 W | 275 0.00 0.00 52.1 86.5
8/10/22 - 1500 84.9 37 55.8 7.2 W | 273 13.8 W | 281 0.00 0.00 52.1 85.9
8/10/22 - 1400 82.9 40 56.0 7.6 W | 274 14.5 W | 273 0.00 0.00 52.1 84.3
8/10/22 - 1300 81.1 42 56.1 6.3 W | 273 14.8 W | 272 0.00 0.00 52.1 82.1
8/10/22 - 1200 77.5 46 55.4 7.7 W | 274 14.5 W | 274 0.00 0.00 52.1 80.1
8/10/22 - 1100 73.5 54 56.1 7.4 W | 274 15.5 W | 271 0.00 0.00 52.1 75.4
8/10/22 - 1000 70.5 59 55.7 6.9 W | 274 12.8 W | 276 0.00 0.00 52.1 71.8
8/10/22 - 0900 66.9 68 56.0 3.4 W | 274 10.1 W | 276 0.00 0.00 52.1 69.2
8/10/22 - 0800 59.1 85 54.6 0.3 W | 274 3.4 W | 275 0.00 0.00 52.1 63.9
8/10/22 - 0700 58.4 84 53.6 1.5 W | 275 7.8 W | 274 0.00 0.00 52.1 63.9
8/10/22 - 0600 57.9 89 54.6 2.2 W | 274 5.4 W | 274 0.00 0.00 52.1 63.9
8/10/22 - 0500 53.5 90 50.8 0.1 W | 274 2.7 W | 275 0.00 0.00 52.1 63.9
8/10/22 - 0400 56.4 86 52.4 0.1 W | 274 2.4 W | 274 0.00 0.00 54.6 63.9
8/10/22 - 0300 61.7 80 55.5 3.7 W | 274 9.8 W | 276 0.00 0.00 59.7 63.9
8/10/22 - 0200 62.6 76 55.1 4.1 W | 274 10.1 W | 279 0.00 0.00 60.2 63.9
8/10/22 - 0100 61.8 81 56.0 4.0 W | 274 11.8 W | 274 0.00 0.00 53.9 84.7
8/10/22 - 0000 62.4 81 56.5 4.0 W | 274 8.8 W | 272 0.00 0.00 53.9 84.7
8/9/22 - 2300 63.6 78 56.7 4.7 W | 274 8.4 W | 274 0.00 0.00 53.9 84.7
8/9/22 - 2200 65.4 72 56.1 4.4 W | 274 10.1 W | 269 0.00 0.00 53.9 84.7
8/9/22 - 2100 68.7 61 54.9 3.8 W | 274 8.8 W | 274 0.00 0.00 53.9 84.7
8/9/22 - 2000 73.3 52 54.5 2.5 W | 280 14.2 WNW | 286 0.00 0.00 53.9 84.7
8/9/22 - 1900 76.2 45 53.2 7.5 W | 276 19.2 W | 274 0.00 0.00 53.9 84.7
8/9/22 - 1800 79.1 39 52.3 7.9 W | 276 17.2 W | 276 0.00 0.00 53.9 84.7
8/9/22 - 1700 82.0 34 51.2 8.8 W | 275 19.2 WNW | 283 0.00 0.00 53.9 84.7
8/9/22 - 1600 83.7 33 51.8 8.0 W | 275 15.8 W | 278 0.00 0.00 53.9 84.7
8/9/22 - 1500 83.6 33 51.9 6.9 W | 275 14.2 W | 276 0.00 0.00 53.9 84.7
8/9/22 - 1400 81.7 40 55.2 6.7 W | 274 13.2 W | 279 0.00 0.00 53.9 83.7
8/9/22 - 1300 79.9 41 53.8 7.6 W | 276 14.2 W | 273 0.00 0.00 53.9 81.2
8/9/22 - 1200 76.8 47 55.0 8.6 W | 276 15.8 W | 274 0.00 0.00 53.9 78.8
8/9/22 - 1100 72.9 55 56.0 10.0 W | 274 17.5 W | 275 0.00 0.00 53.9 75.4
8/9/22 - 1000 70.1 62 56.5 8.4 W | 274 17.8 W | 277 0.00 0.00 53.9 70.9
8/9/22 - 0900 67.5 68 56.7 4.9 W | 274 10.8 W | 271 0.00 0.00 53.9 69.4
8/9/22 - 0800 62.3 79 55.8 2.2 W | 275 7.4 W | 274 0.00 0.00 53.9 65.6
8/9/22 - 0700 56.7 89 53.4 1.2 W | 274 6.1 W | 275 0.00 0.00 53.9 65.6
8/9/22 - 0600 55.6 87 52.0 0.2 W | 275 3.4 W | 276 0.00 0.00 54.6 65.6
8/9/22 - 0500 61.1 78 54.4 1.2 W | 274 9.1 W | 270 0.00 0.00 57.0 65.6
8/9/22 - 0400 63.6 76 55.8 5.9 W | 274 11.5 W | 270 0.00 0.00 62.9 65.6
8/9/22 - 0300 64.1 75 55.9 5.7 W | 274 12.1 W | 269 0.00 0.00 62.9 65.6
8/9/22 - 0200 64.9 72 55.5 6.3 W | 274 12.1 W | 272 0.00 0.00 64.4 65.6
8/9/22 - 0100 65.8 68 55.1 5.8 W | 274 10.5 W | 268 0.00 0.00 50.7 86.0
8/9/22 - 0000 67.6 62 54.0 6.3 W | 274 13.5 W | 273 0.00 0.00 50.7 86.0
8/8/22 - 2300 68.5 59 53.5 6.8 W | 274 13.8 W | 276 0.00 0.00 50.7 86.0
8/8/22 - 2200 69.0 59 54.0 7.4 W | 274 14.8 W | 266 0.00 0.00 50.7 86.0
8/8/22 - 2100 71.2 54 53.5 6.9 W | 274 14.8 W | 271 0.00 0.00 50.7 86.0
8/8/22 - 2000 75.5 45 52.8 5.9 W | 275 12.8 W | 280 0.00 0.00 50.7 86.0
8/8/22 - 1900 79.4 39 52.5 9.0 W | 275 17.8 W | 271 0.00 0.00 50.7 86.0
8/8/22 - 1800 82.2 36 52.7 9.3 W | 274 18.8 W | 274 0.00 0.00 50.7 86.0
8/8/22 - 1700 84.7 35 53.7 8.8 W | 275 16.2 W | 275 0.00 0.00 50.7 86.0
8/8/22 - 1600 84.7 36 54.9 8.6 W | 275 14.8 W | 279 0.00 0.00 50.7 85.7
8/8/22 - 1500 83.9 35 53.6 9.9 W | 277 18.5 W | 277 0.00 0.00 50.7 84.5
8/8/22 - 1400 82.9 38 54.4 9.4 W | 276 17.2 W | 278 0.00 0.00 50.7 83.9
8/8/22 - 1300 80.4 42 55.0 9.9 W | 276 17.5 W | 277 0.00 0.00 50.7 82.1
8/8/22 - 1200 77.3 47 55.8 10.3 W | 263 17.5 W | 274 0.00 0.00 50.7 79.1
8/8/22 - 1100 74.4 53 56.3 9.6 WSW | 255 17.5 WSW | 245 0.00 0.00 50.7 75.9
8/8/22 - 1000 73.9 54 56.2 5.3 WSW | 245 10.5 WSW | 249 0.00 0.00 50.7 74.8
8/8/22 - 0900 70.0 62 56.4 0.5 WSW | 245 3.8 WSW | 245 0.00 0.00 50.7 73.1
8/8/22 - 0800 59.5 87 55.4 0.0 WSW | 247 2.4 WSW | 247 0.00 0.00 50.7 65.9
8/8/22 - 0700 51.8 92 49.6 0.1 WSW | 246 2.4 WSW | 246 0.00 0.00 50.7 63.6
8/8/22 - 0600 51.8 91 49.4 0.3 WSW | 246 3.4 WSW | 247 0.00 0.00 51.4 63.6
8/8/22 - 0500 52.1 89 49.0 0.1 WSW | 246 2.7 WSW | 246 0.00 0.00 51.5 63.6
8/8/22 - 0400 54.4 85 50.1 0.3 WSW | 245 3.1 WSW | 246 0.00 0.00 52.8 63.6
8/8/22 - 0300 57.6 82 52.2 0.7 WSW | 245 5.8 WSW | 246 0.00 0.00 55.7 63.6
8/8/22 - 0200 59.4 77 52.3 0.2 WSW | 247 3.1 WSW | 247 0.00 0.00 56.9 63.6
8/8/22 - 0100 64.4 72 55.1 4.4 WSW | 246 10.8 WSW | 241 0.00 0.00 49.4 85.5
8/8/22 - 0000 65.3 69 54.9 5.7 WSW | 243 12.5 WSW | 242 0.00 0.00 49.4 85.5
8/7/22 - 2300 66.2 65 54.2 5.0 WSW | 244 12.1 WSW | 237 0.00 0.00 49.4 85.5
8/7/22 - 2200 68.1 60 53.6 5.3 WSW | 246 11.8 WSW | 244 0.00 0.00 49.4 85.5
8/7/22 - 2100 70.3 55 53.5 4.8 WSW | 246 11.8 WSW | 245 0.00 0.00 49.4 85.5
8/7/22 - 2000 74.9 47 53.1 2.0 WSW | 245 10.5 WSW | 244 0.00 0.00 49.4 85.5
8/7/22 - 1900 78.2 42 53.0 7.9 WSW | 254 21.2 W | 266 0.00 0.00 49.4 85.5
8/7/22 - 1800 82.3 38 54.5 9.6 W | 273 19.8 W | 270 0.00 0.00 49.4 85.5
8/7/22 - 1700 83.7 37 54.8 10.5 W | 274 19.2 W | 279 0.00 0.00 49.4 85.5
8/7/22 - 1600 83.1 39 55.7 10.9 W | 273 20.5 W | 276 0.00 0.00 49.4 85.5
8/7/22 - 1500 84.6 37 55.5 9.1 W | 272 20.2 W | 275 0.00 0.00 49.4 85.5
8/7/22 - 1400 82.4 39 54.8 10.2 W | 273 16.5 W | 276 0.00 0.00 49.4 84.7
8/7/22 - 1300 79.1 42 54.2 10.9 W | 273 19.5 W | 264 0.00 0.00 49.4 81.1
8/7/22 - 1200 75.4 48 54.4 11.2 W | 272 20.5 W | 272 0.00 0.00 49.4 77.0
8/7/22 - 1100 73.0 53 54.9 8.4 W | 273 16.5 W | 274 0.00 0.00 49.4 73.8
8/7/22 - 1000 70.1 60 55.7 4.8 W | 272 10.8 W | 272 0.00 0.00 49.4 72.6
8/7/22 - 0900 65.8 69 55.5 3.1 W | 273 10.5 W | 274 0.00 0.00 49.4 67.7
8/7/22 - 0800 59.3 80 53.1 3.2 W | 274 12.1 W | 274 0.00 0.00 49.4 65.5
8/7/22 - 0700 52.1 86 48.2 0.1 W | 272 3.4 W | 272 0.00 0.00 49.4 65.5
8/7/22 - 0600 50.5 85 46.2 0.2 W | 273 3.4 W | 273 0.00 0.00 49.4 65.5
8/7/22 - 0500 51.5 82 46.3 0.0 W | 273 1.7 W | 273 0.00 0.00 50.8 65.5
8/7/22 - 0400 53.2 79 47.0 0.2 W | 273 3.1 W | 273 0.00 0.00 52.5 65.5
8/7/22 - 0300 55.2 75 47.4 0.1 W | 273 2.7 W | 272 0.00 0.00 53.6 65.5
8/7/22 - 0200 59.2 68 48.6 0.4 W | 273 4.4 W | 274 0.00 0.00 56.5 65.5
8/7/22 - 0100 65.7 55 49.1 3.4 W | 272 11.8 W | 268 0.00 0.00 61.8 82.7
8/7/22 - 0000 68.5 51 49.8 5.1 W | 273 11.8 W | 270 0.00 0.00 61.8 82.7
8/6/22 - 2300 68.4 55 51.5 5.4 W | 273 10.8 W | 278 0.00 0.00 61.8 82.7
8/6/22 - 2200 70.1 53 52.3 6.6 W | 273 15.5 WSW | 258 0.00 0.00 61.8 82.7
8/6/22 - 2100 71.2 54 53.8 6.8 W | 274 13.5 W | 264 0.00 0.00 61.8 82.7
8/6/22 - 2000 74.3 50 54.3 8.4 W | 275 17.2 W | 280 0.00 0.00 61.8 82.7
8/6/22 - 1900 78.4 46 56.1 9.9 W | 276 19.2 W | 274 0.00 0.00 61.8 82.7
8/6/22 - 1800 81.1 43 56.8 9.2 W | 275 17.8 W | 276 0.00 0.00 61.8 82.7
8/6/22 - 1700 82.1 42 57.0 10.4 W | 276 19.5 W | 277 0.00 0.00 61.8 82.7
8/6/22 - 1600 81.9 43 57.3 10.2 W | 276 20.2 W | 274 0.00 0.00 61.8 82.6
8/6/22 - 1500 81.6 44 57.4 9.4 W | 276 17.8 W | 276 0.00 0.00 61.8 82.3
8/6/22 - 1400 79.7 46 57.0 10.1 W | 276 17.2 W | 279 0.00 0.00 61.8 81.3
8/6/22 - 1300 77.2 50 57.0 10.2 W | 269 17.2 W | 269 0.00 0.00 61.8 79.1
8/6/22 - 1200 75.4 54 57.6 8.6 W | 269 15.8 W | 272 0.00 0.00 61.8 76.0
8/6/22 - 1100 72.2 59 57.3 7.2 WSW | 258 13.2 W | 263 0.00 0.00 61.8 74.6
8/6/22 - 1000 69.0 66 57.2 5.9 W | 261 12.5 W | 262 0.00 0.00 61.8 70.6
8/6/22 - 0900 66.8 71 57.3 3.4 W | 267 12.1 W | 260 0.00 0.00 61.8 67.8
8/6/22 - 0800 64.2 78 57.0 1.7 W | 265 6.4 W | 262 0.00 0.00 61.8 66.5
8/6/22 - 0700 62.0 81 56.1 3.1 W | 268 12.1 W | 277 0.00 0.00 61.8 63.5
8/6/22 - 0600 62.2 81 56.2 4.2 W | 269 12.1 W | 272 0.00 0.00 61.8 63.5
8/6/22 - 0500 62.8 81 56.9 6.2 W | 267 15.2 W | 266 0.00 0.00 62.0 63.5
8/6/22 - 0400 62.5 82 57.1 3.4 W | 263 10.1 W | 264 0.00 0.00 62.0 63.5
8/6/22 - 0300 63.1 82 57.5 4.4 W | 267 12.8 W | 274 0.00 0.00 62.6 63.5
8/6/22 - 0200 63.4 82 57.7 5.8 W | 267 12.5 W | 274 0.00 0.00 63.2 63.5
8/6/22 - 0100 63.4 82 57.7 4.4 W | 266 9.8 W | 266 0.00 0.00 61.1 85.4
8/6/22 - 0000 63.7 81 57.7 3.3 W | 266 8.4 W | 268 0.00 0.00 61.1 85.4
8/5/22 - 2300 64.5 81 58.5 3.6 W | 267 7.8 W | 267 0.00 0.00 61.1 85.4
8/5/22 - 2200 64.8 81 58.9 4.6 W | 266 10.5 W | 268 0.00 0.00 61.1 85.4
8/5/22 - 2100 66.4 77 58.8 2.8 W | 267 11.5 W | 264 0.00 0.00 61.1 85.4
8/5/22 - 2000 70.4 67 59.1 5.6 W | 264 14.8 W | 269 0.00 0.00 61.1 85.4
8/5/22 - 1900 74.8 60 59.9 7.1 W | 263 14.8 W | 259 0.00 0.00 61.1 85.4
8/5/22 - 1800 78.9 54 60.8 7.0 W | 266 15.2 W | 271 0.00 0.00 61.1 85.4
8/5/22 - 1700 81.0 51 61.3 6.4 W | 265 12.1 W | 263 0.00 0.00 61.1 85.4
8/5/22 - 1600 82.4 49 61.3 7.6 W | 266 15.5 W | 268 0.00 0.00 61.1 85.4
8/5/22 - 1500 83.2 48 61.3 6.6 W | 266 13.8 W | 263 0.00 0.00 61.1 85.4
8/5/22 - 1400 83.1 47 60.8 5.8 W | 271 11.8 W | 273 0.00 0.00 61.1 84.3
8/5/22 - 1300 80.6 51 60.7 4.8 W | 260 11.1 W | 265 0.00 0.00 61.1 82.6
8/5/22 - 1200 76.8 55 59.6 6.0 W | 271 13.5 W | 277 0.00 0.00 61.1 78.9
8/5/22 - 1100 74.1 58 58.6 6.5 W | 272 12.5 W | 274 0.00 0.00 61.1 75.6
8/5/22 - 1000 69.6 64 57.0 6.6 W | 274 14.2 W | 274 0.00 0.00 61.1 72.7
8/5/22 - 0900 66.3 70 56.3 5.7 W | 274 14.5 W | 281 0.00 0.00 61.1 67.6
8/5/22 - 0800 63.1 77 55.8 6.4 W | 275 13.5 W | 279 0.00 0.00 61.1 67.2
8/5/22 - 0700 62.1 78 55.3 6.8 W | 276 15.5 WNW | 283 0.00 0.00 61.1 67.2
8/5/22 - 0600 61.8 79 55.2 6.8 W | 266 14.5 WNW | 284 0.00 0.00 61.1 67.2
8/5/22 - 0500 61.3 81 55.5 8.4 W | 276 15.5 W | 273 0.00 0.00 61.1 67.2
Max 86.8 93 61.3 11.2 - 21.2 - 0.00 0.00 64.4 87.6
Avg 70.0 62 54.8 5.3 - 12.1 - 0.00 - - -
Min 50.5 32 46.2 0.0 - 1.7 - 0.00 0.00 49.4 63.5
Total - - - - - - - 0.00 - - -
Tip: Bookmark this page for easy future reference